createdAt,value
2023-05-05T00:01:09.016Z,102017.53
2023-05-05T00:03:35.824Z,102009.03
2023-05-05T00:06:02.729Z,102015.28
2023-05-05T00:08:29.486Z,102010.72
2023-05-05T00:10:57.314Z,102005.06
2023-05-05T00:13:23.943Z,102002.31
2023-05-05T00:15:52.064Z,101994.97
2023-05-05T00:18:19.300Z,102001.09
2023-05-05T00:20:47.086Z,101996.53
2023-05-05T00:23:14.440Z,102000.88
2023-05-05T00:25:41.064Z,101998.25
2023-05-05T00:28:07.738Z,101989.34
2023-05-05T00:30:34.547Z,101991.88
2023-05-05T00:33:01.460Z,101994.16
2023-05-05T00:35:27.929Z,101993.28
2023-05-05T00:37:55.217Z,101990.78
2023-05-05T00:40:21.960Z,101982.38
2023-05-05T00:42:52.508Z,101983.31
2023-05-05T00:45:20.308Z,101978.03
2023-05-05T00:47:49.335Z,101978.31
2023-05-05T00:50:30.168Z,101986.97
2023-05-05T00:53:00.891Z,101986.06
2023-05-05T00:55:29.180Z,101985.19
2023-05-05T00:57:57.078Z,101981.59
2023-05-05T01:00:23.859Z,101980.78
2023-05-05T01:02:52.047Z,101985.19
2023-05-05T01:05:21.654Z,101971.28
2023-05-05T01:08:00.404Z,101977.03
2023-05-05T01:10:40.677Z,101971.50
2023-05-05T01:13:40.572Z,101974.38
2023-05-05T01:16:14.652Z,101975.81
2023-05-05T01:19:00.839Z,101972.84
2023-05-05T01:21:41.324Z,101978.22
2023-05-05T01:24:26.440Z,101967.56
2023-05-05T01:27:05.307Z,101973.19
2023-05-05T01:29:58.115Z,101961.06
2023-05-05T01:32:31.663Z,101964.75
2023-05-05T01:35:09.721Z,101964.66
2023-05-05T01:38:02.839Z,101958.31
2023-05-05T01:40:37.635Z,101961.53
2023-05-05T01:43:08.101Z,101959.22
2023-05-05T01:45:38.967Z,101955.88
2023-05-05T01:48:08.256Z,101962.84
2023-05-05T01:50:36.800Z,101959.94
2023-05-05T01:53:05.252Z,101953.44
2023-05-05T01:55:33.431Z,101948.72
2023-05-05T01:58:03.271Z,101942.75
2023-05-05T02:00:30.552Z,101938.34
2023-05-05T02:02:59.802Z,101935.44
2023-05-05T02:05:27.320Z,101927.78
2023-05-05T02:07:58.779Z,101937.03
2023-05-05T02:10:26.605Z,101936.03
2023-05-05T02:12:53.957Z,101933.63
2023-05-05T02:15:21.968Z,101939.75
2023-05-05T02:17:52.748Z,101932.56
2023-05-05T02:20:20.377Z,101938.28
2023-05-05T02:22:48.430Z,101928.56
2023-05-05T02:25:15.175Z,101932.78
2023-05-05T02:27:43.409Z,101923.63
2023-05-05T02:30:13.820Z,101915.47
2023-05-05T02:32:44.524Z,101918.63
2023-05-05T02:35:15.593Z,101915.13
2023-05-05T02:37:50.597Z,101920.25
2023-05-05T02:40:22.058Z,101919.28
2023-05-05T02:42:51.446Z,101915.69
2023-05-05T02:45:21.453Z,101920.59
2023-05-05T02:47:49.662Z,101913.66
2023-05-05T02:50:16.220Z,101916.06
2023-05-05T02:52:51.096Z,101908.28
2023-05-05T02:55:21.418Z,101913.00
2023-05-05T02:58:11.703Z,101915.78
2023-05-05T03:00:53.491Z,101916.81
2023-05-05T03:03:36.474Z,101914.94
2023-05-05T03:06:20.015Z,101903.44
2023-05-05T03:09:10.665Z,101902.22
2023-05-05T03:11:44.847Z,101898.88
2023-05-05T03:14:19.130Z,101898.97
2023-05-05T03:16:49.254Z,101890.22
2023-05-05T03:19:20.212Z,101890.13
2023-05-05T03:21:52.347Z,101891.06
2023-05-05T03:24:20.545Z,101892.25
2023-05-05T03:27:07.228Z,101886.41
2023-05-05T03:29:37.507Z,101885.69
2023-05-05T03:32:08.266Z,101879.81
2023-05-05T03:34:37.424Z,101883.56
2023-05-05T03:37:05.196Z,101887.75
2023-05-05T03:39:32.084Z,101882.50
2023-05-05T03:41:59.043Z,101891.25
2023-05-05T03:44:29.694Z,101891.00
2023-05-05T03:46:56.802Z,101878.06
2023-05-05T03:49:24.781Z,101879.97
2023-05-05T03:51:52.095Z,101887.97
2023-05-05T03:54:18.748Z,101882.69
2023-05-05T03:56:45.365Z,101884.41
2023-05-05T03:59:12.006Z,101880.94
2023-05-05T04:01:38.726Z,101874.94
2023-05-05T04:04:05.566Z,101875.88
2023-05-05T04:06:32.218Z,101866.19
2023-05-05T04:08:58.718Z,101877.06
2023-05-05T04:11:26.124Z,101879.31
2023-05-05T04:13:54.247Z,101883.06
2023-05-05T04:16:21.259Z,101877.16
2023-05-05T04:18:48.052Z,101874.44
2023-05-05T04:21:14.532Z,101869.84
2023-05-05T04:23:41.267Z,101877.53
2023-05-05T04:26:07.703Z,101862.88
2023-05-05T04:28:34.244Z,101861.53
2023-05-05T04:31:01.381Z,101871.75
2023-05-05T04:33:30.912Z,101877.97
2023-05-05T04:35:58.258Z,101867.78
2023-05-05T04:38:24.973Z,101859.75
2023-05-05T04:40:51.436Z,101872.38
2023-05-05T04:43:17.935Z,101877.75
2023-05-05T04:45:54.750Z,101877.53
2023-05-05T04:48:24.521Z,101887.31
2023-05-05T04:50:51.715Z,101889.41
2023-05-05T04:53:18.278Z,101892.41
2023-05-05T04:55:44.815Z,101883.72
2023-05-05T04:58:11.355Z,101886.88
2023-05-05T05:00:38.560Z,101889.34
2023-05-05T05:03:05.168Z,101879.81
2023-05-05T05:05:31.652Z,101870.28
2023-05-05T05:07:58.173Z,101875.91
2023-05-05T05:10:24.687Z,101881.56
2023-05-05T05:12:51.224Z,101868.25
2023-05-05T05:15:17.686Z,101883.25
2023-05-05T05:17:44.474Z,101888.53
2023-05-05T05:20:12.011Z,101880.88
2023-05-05T05:22:39.062Z,101892.63
2023-05-05T05:25:09.298Z,101895.13
2023-05-05T05:27:36.428Z,101896.44
2023-05-05T05:30:03.170Z,101904.34
2023-05-05T05:32:31.063Z,101895.09
2023-05-05T05:34:57.716Z,101886.00
2023-05-05T05:37:24.536Z,101896.16
2023-05-05T05:39:52.076Z,101901.94
2023-05-05T05:42:20.049Z,101909.97
2023-05-05T05:44:46.623Z,101909.88
2023-05-05T05:47:13.696Z,101902.25
2023-05-05T05:49:40.191Z,101906.00
2023-05-05T05:52:06.900Z,101901.81
2023-05-05T05:54:35.501Z,101894.69
2023-05-05T05:57:04.269Z,101890.59
2023-05-05T05:59:30.820Z,101894.53
2023-05-05T06:01:57.374Z,101893.38
2023-05-05T06:04:24.225Z,101899.25
2023-05-05T06:06:50.805Z,101901.00
2023-05-05T06:09:17.355Z,101891.97
2023-05-05T06:11:43.932Z,101878.69
2023-05-05T06:14:10.573Z,101866.56
2023-05-05T06:16:37.179Z,101857.97
2023-05-05T06:19:09.703Z,101863.72
2023-05-05T06:21:37.614Z,101853.31
2023-05-05T06:24:04.645Z,101850.53
2023-05-05T06:26:32.011Z,101854.47
2023-05-05T06:28:58.567Z,101866.78
2023-05-05T06:31:25.193Z,101854.34
2023-05-05T06:33:51.758Z,101855.63
2023-05-05T06:36:18.247Z,101855.38
2023-05-05T06:38:44.736Z,101849.75
2023-05-05T06:41:11.428Z,101856.03
2023-05-05T06:43:37.976Z,101844.72
2023-05-05T06:46:07.954Z,101849.34
2023-05-05T06:48:34.662Z,101853.44
2023-05-05T06:51:01.239Z,101869.34
2023-05-05T06:53:27.696Z,101881.34
2023-05-05T06:55:54.176Z,101878.91
2023-05-05T06:58:21.518Z,101883.25
2023-05-05T07:00:48.326Z,101887.72
2023-05-05T07:03:15.082Z,101898.13
2023-05-05T07:05:42.022Z,101891.88
2023-05-05T07:08:09.825Z,101888.66
2023-05-05T07:10:36.264Z,101886.59
2023-05-05T07:13:02.808Z,101886.84
2023-05-05T07:15:29.918Z,101896.34
2023-05-05T07:17:57.170Z,101894.78
2023-05-05T07:20:24.332Z,101902.72
2023-05-05T07:22:51.038Z,101906.50
2023-05-05T07:25:17.513Z,101899.56
2023-05-05T07:27:44.269Z,101913.22
2023-05-05T07:30:14.732Z,101912.69
2023-05-05T07:32:44.020Z,101917.91
2023-05-05T07:35:10.776Z,101918.34
2023-05-05T07:37:37.532Z,101921.97
2023-05-05T07:40:04.309Z,101920.47
2023-05-05T07:42:30.876Z,101925.41
2023-05-05T07:44:57.307Z,101913.22
2023-05-05T07:47:24.043Z,101921.97
2023-05-05T07:49:50.966Z,101928.03
2023-05-05T07:52:17.435Z,101939.75
2023-05-05T07:54:45.150Z,101942.56
2023-05-05T07:57:11.826Z,101943.97
2023-05-05T07:59:41.006Z,101939.31
2023-05-05T08:02:07.670Z,101948.94
2023-05-05T08:04:34.132Z,101950.78
2023-05-05T08:07:00.679Z,101950.47
2023-05-05T08:09:27.170Z,101960.25
2023-05-05T08:11:53.649Z,101963.88
2023-05-05T08:14:20.075Z,101952.38
2023-05-05T08:16:46.644Z,101947.25
2023-05-05T08:19:27.639Z,101939.16
2023-05-05T08:21:56.169Z,101934.75
2023-05-05T08:24:22.708Z,101906.63
2023-05-05T08:26:49.302Z,101894.75
2023-05-05T08:29:15.719Z,101904.50
2023-05-05T08:31:42.411Z,101906.63
2023-05-05T08:34:08.885Z,101897.44
2023-05-05T08:36:35.437Z,101894.19
2023-05-05T08:39:01.994Z,101890.06
2023-05-05T08:41:28.807Z,101887.72
2023-05-05T08:43:56.206Z,101894.91
2023-05-05T08:46:24.389Z,101896.34
2023-05-05T08:48:55.436Z,101900.31
2023-05-05T08:51:23.137Z,101889.00
2023-05-05T08:53:55.777Z,101881.88
2023-05-05T08:56:22.493Z,101876.00
2023-05-05T08:58:50.614Z,101875.53
2023-05-05T09:01:18.194Z,101868.41
2023-05-05T09:03:46.133Z,101875.09
2023-05-05T09:06:13.038Z,101859.38
2023-05-05T09:08:40.014Z,101869.38
2023-05-05T09:11:06.593Z,101863.09
2023-05-05T09:13:33.047Z,101872.06
2023-05-05T09:16:00.147Z,101860.28
2023-05-05T09:18:26.804Z,101862.66
2023-05-05T09:20:53.285Z,101865.16
2023-05-05T09:23:20.846Z,101870.31
2023-05-05T09:26:03.845Z,101866.44
2023-05-05T09:28:30.420Z,101865.81
2023-05-05T09:31:12.404Z,101859.31
2023-05-05T09:33:39.292Z,101868.03
2023-05-05T09:36:06.233Z,101870.34
2023-05-05T09:38:34.539Z,101866.53
2023-05-05T09:41:01.123Z,101870.31
2023-05-05T09:43:27.557Z,101875.16
2023-05-05T09:46:07.354Z,101863.31
2023-05-05T09:48:33.928Z,101854.38
2023-05-05T09:51:00.652Z,101846.25
2023-05-05T09:53:38.141Z,101841.44
2023-05-05T09:56:04.993Z,101843.69
2023-05-05T09:58:31.619Z,101844.38
2023-05-05T10:00:59.289Z,101836.19
2023-05-05T10:03:26.290Z,101841.97
2023-05-05T10:05:58.876Z,101849.28
2023-05-05T10:08:27.675Z,101855.53
2023-05-05T10:11:00.396Z,101847.97
2023-05-05T10:13:27.889Z,101840.00
2023-05-05T10:15:56.788Z,101847.25
2023-05-05T10:18:25.267Z,101851.41
2023-05-05T10:20:57.465Z,101860.06
2023-05-05T10:23:28.093Z,101863.63
2023-05-05T10:26:02.319Z,101860.50
2023-05-05T10:28:32.793Z,101872.22
2023-05-05T10:31:02.183Z,101872.16
2023-05-05T10:33:35.608Z,101873.72
2023-05-05T10:36:05.202Z,101857.13
2023-05-05T10:38:32.340Z,101865.06
2023-05-05T10:41:03.066Z,101854.19
2023-05-05T10:43:31.277Z,101855.47
2023-05-05T10:45:59.155Z,101857.88
2023-05-05T10:48:33.036Z,101853.44
2023-05-05T10:51:12.647Z,101850.13
2023-05-05T10:53:49.623Z,101828.66
2023-05-05T10:56:26.662Z,101826.06
2023-05-05T10:59:00.037Z,101820.75
2023-05-05T11:01:34.946Z,101822.53
2023-05-05T11:04:17.871Z,101814.69
2023-05-05T11:07:13.424Z,101811.88
2023-05-05T11:10:04.232Z,101807.09
2023-05-05T11:12:32.110Z,101811.28
2023-05-05T11:15:23.619Z,101795.94
2023-05-05T11:17:50.122Z,101801.91
2023-05-05T11:20:16.934Z,101802.91
2023-05-05T11:23:05.322Z,101813.09
2023-05-05T11:25:34.885Z,101815.06
2023-05-05T11:28:13.190Z,101811.09
2023-05-05T11:30:54.778Z,101795.75
2023-05-05T11:33:38.215Z,101793.09
2023-05-05T11:36:12.813Z,101790.41
2023-05-05T11:38:39.370Z,101789.41
2023-05-05T11:41:13.694Z,101785.38
2023-05-05T11:43:41.763Z,101786.19
2023-05-05T11:46:15.423Z,101780.84
2023-05-05T11:48:45.981Z,101765.00
2023-05-05T11:51:13.616Z,101771.81
2023-05-05T11:53:45.466Z,101768.81
2023-05-05T11:56:21.848Z,101760.97
2023-05-05T11:58:49.605Z,101761.41
2023-05-05T12:01:16.622Z,101772.94
2023-05-05T12:03:45.883Z,101779.16
2023-05-05T12:06:12.943Z,101775.50
2023-05-05T12:08:40.813Z,101772.22
2023-05-05T12:11:09.625Z,101756.84
2023-05-05T12:13:36.139Z,101760.97
2023-05-05T12:16:13.207Z,101750.31
2023-05-05T12:18:40.982Z,101755.16
2023-05-05T12:21:20.608Z,101749.84
2023-05-05T12:23:47.167Z,101754.19
2023-05-05T12:26:31.598Z,101755.91
2023-05-05T12:29:01.185Z,101755.41
2023-05-05T12:31:42.825Z,101757.44
2023-05-05T12:34:10.675Z,101751.97
2023-05-05T12:36:37.977Z,101756.13
2023-05-05T12:39:05.404Z,101763.59
2023-05-05T12:41:32.655Z,101760.13
2023-05-05T12:44:00.608Z,101768.78
2023-05-05T12:46:29.688Z,101752.50
2023-05-05T12:49:06.463Z,101757.13
2023-05-05T12:51:37.378Z,101764.41
2023-05-05T12:54:06.376Z,101749.94
2023-05-05T12:56:40.542Z,101745.97
2023-05-05T12:59:09.039Z,101761.97
2023-05-05T13:01:37.557Z,101753.81
2023-05-05T13:04:10.707Z,101760.88
2023-05-05T13:06:38.339Z,101747.75
2023-05-05T13:09:05.998Z,101751.75
2023-05-05T13:11:39.454Z,101754.72
2023-05-05T13:14:06.915Z,101758.56
2023-05-05T13:16:33.915Z,101748.41
2023-05-05T13:19:00.465Z,101746.56
2023-05-05T13:21:27.973Z,101748.88
2023-05-05T13:23:55.952Z,101739.72
2023-05-05T13:26:28.319Z,101747.38
2023-05-05T13:28:54.948Z,101743.38
2023-05-05T13:31:22.693Z,101742.72
2023-05-05T13:33:49.224Z,101732.41
2023-05-05T13:36:15.825Z,101729.22
2023-05-05T13:38:42.449Z,101722.56
2023-05-05T13:41:08.851Z,101726.91
2023-05-05T13:43:35.309Z,101727.06
2023-05-05T13:46:16.108Z,101725.25
2023-05-05T13:48:46.111Z,101720.06
2023-05-05T13:51:13.215Z,101711.22
2023-05-05T13:53:43.720Z,101712.63
2023-05-05T13:56:10.660Z,101707.25
2023-05-05T13:58:37.986Z,101724.66
2023-05-05T14:01:04.583Z,101711.97
2023-05-05T14:03:31.506Z,101723.38
2023-05-05T14:05:58.058Z,101723.41
2023-05-05T14:08:24.614Z,101726.91
2023-05-05T14:10:52.168Z,101725.38
2023-05-05T14:13:19.181Z,101710.09
2023-05-05T14:15:45.862Z,101719.41
2023-05-05T14:18:12.303Z,101716.41
2023-05-05T14:20:38.774Z,101722.91
2023-05-05T14:23:05.668Z,101723.06
2023-05-05T14:25:32.368Z,101722.41
2023-05-05T14:27:58.831Z,101726.03
2023-05-05T14:30:25.608Z,101711.41
2023-05-05T14:32:52.381Z,101708.91
2023-05-05T14:35:18.827Z,101707.75
2023-05-05T14:37:45.417Z,101696.09
2023-05-05T14:40:11.985Z,101702.06
2023-05-05T14:42:38.747Z,101691.69
2023-05-05T14:45:06.353Z,101699.31
2023-05-05T14:47:33.651Z,101691.84
2023-05-05T14:50:00.268Z,101686.47
2023-05-05T14:52:26.984Z,101697.47
2023-05-05T14:54:53.412Z,101694.66
2023-05-05T14:57:19.922Z,101693.63
2023-05-05T14:59:46.379Z,101692.66
2023-05-05T15:02:13.122Z,101677.31
2023-05-05T15:04:39.553Z,101676.19
2023-05-05T15:07:06.028Z,101673.34
2023-05-05T15:09:32.430Z,101670.03
2023-05-05T15:11:59.229Z,101656.72
2023-05-05T15:14:26.512Z,101663.41
2023-05-05T15:16:52.966Z,101652.13
2023-05-05T15:19:19.375Z,101645.78
2023-05-05T15:21:52.957Z,101645.78
2023-05-05T15:24:20.737Z,101641.94
2023-05-05T15:26:47.276Z,101645.78
2023-05-05T15:29:13.765Z,101639.97
2023-05-05T15:31:40.382Z,101646.56
2023-05-05T15:34:06.945Z,101644.25
2023-05-05T15:36:33.536Z,101649.41
2023-05-05T15:38:59.981Z,101651.75
2023-05-05T15:41:29.257Z,101650.91
2023-05-05T15:43:55.797Z,101652.38
2023-05-05T15:46:22.435Z,101651.34
2023-05-05T15:48:48.885Z,101649.00
2023-05-05T15:51:15.419Z,101652.00
2023-05-05T15:53:41.835Z,101658.16
2023-05-05T15:56:08.357Z,101647.34
2023-05-05T15:58:34.824Z,101644.00
2023-05-05T16:01:01.477Z,101652.13
2023-05-05T16:03:28.085Z,101650.16
2023-05-05T16:05:54.835Z,101640.50
2023-05-05T16:08:21.262Z,101640.84
2023-05-05T16:10:47.848Z,101644.38
2023-05-05T16:13:14.374Z,101644.34
2023-05-05T16:15:40.967Z,101634.19
2023-05-05T16:18:07.470Z,101638.19
2023-05-05T16:20:34.225Z,101641.00
2023-05-05T16:23:00.763Z,101647.59
2023-05-05T16:25:27.266Z,101634.41
2023-05-05T16:27:56.539Z,101647.13
2023-05-05T16:30:23.281Z,101653.25
2023-05-05T16:32:51.651Z,101649.72
2023-05-05T16:35:18.346Z,101656.84
2023-05-05T16:37:44.835Z,101652.34
2023-05-05T16:40:12.003Z,101661.47
2023-05-05T16:42:38.434Z,101669.75
2023-05-05T16:45:06.805Z,101667.91
2023-05-05T16:47:33.493Z,101679.66
2023-05-05T16:50:00.053Z,101678.31
2023-05-05T16:52:26.599Z,101668.97
2023-05-05T16:54:55.781Z,101679.47
2023-05-05T16:57:23.413Z,101676.91
2023-05-05T16:59:50.275Z,101682.38
2023-05-05T17:02:16.917Z,101678.31
2023-05-05T17:04:43.568Z,101680.81
2023-05-05T17:07:09.992Z,101679.06
2023-05-05T17:09:36.465Z,101674.16
2023-05-05T17:12:04.291Z,101681.91
2023-05-05T17:14:31.179Z,101687.69
2023-05-05T17:16:57.802Z,101689.03
2023-05-05T17:19:24.357Z,101681.38
2023-05-05T17:21:50.788Z,101685.06
2023-05-05T17:24:17.351Z,101676.84
2023-05-05T17:26:44.081Z,101676.00
2023-05-05T17:29:12.925Z,101678.97
2023-05-05T17:31:39.657Z,101678.88
2023-05-05T17:34:06.268Z,101686.47
2023-05-05T17:36:33.522Z,101682.81
2023-05-05T17:39:00.067Z,101693.56
2023-05-05T17:41:27.024Z,101693.06
2023-05-05T17:43:53.464Z,101686.66
2023-05-05T17:46:19.992Z,101691.28
2023-05-05T17:48:46.644Z,101699.44
2023-05-05T17:51:13.263Z,101695.81
2023-05-05T17:53:39.917Z,101711.47
2023-05-05T17:56:08.692Z,101713.16
2023-05-05T17:58:35.585Z,101701.78
2023-05-05T18:01:02.437Z,101703.22
2023-05-05T18:03:29.172Z,101701.88
2023-05-05T18:05:56.070Z,101705.22
2023-05-05T18:08:23.141Z,101711.66
2023-05-05T18:10:49.708Z,101705.22
2023-05-05T18:13:16.212Z,101705.81
2023-05-05T18:15:42.772Z,101712.66
2023-05-05T18:18:09.288Z,101716.88
2023-05-05T18:20:35.953Z,101724.81
2023-05-05T18:23:02.364Z,101723.69
2023-05-05T18:25:29.194Z,101730.06
2023-05-05T18:27:55.631Z,101730.53
2023-05-05T18:30:22.142Z,101729.00
2023-05-05T18:32:48.773Z,101734.41
2023-05-05T18:35:15.540Z,101739.56
2023-05-05T18:37:42.214Z,101747.66
2023-05-05T18:40:10.158Z,101746.13
2023-05-05T18:42:36.618Z,101746.81
2023-05-05T18:45:03.302Z,101753.38
2023-05-05T18:47:29.832Z,101758.78
2023-05-05T18:49:56.410Z,101758.09
2023-05-05T18:52:22.924Z,101768.41
2023-05-05T18:54:49.405Z,101763.22
2023-05-05T18:57:15.838Z,101766.31
2023-05-05T18:59:42.513Z,101775.94
2023-05-05T19:02:08.969Z,101767.00
2023-05-05T19:04:37.819Z,101768.25
2023-05-05T19:07:04.898Z,101779.13
2023-05-05T19:09:31.697Z,101773.41
2023-05-05T19:11:58.132Z,101778.28
2023-05-05T19:14:24.921Z,101779.41
2023-05-05T19:16:51.925Z,101775.91
2023-05-05T19:19:18.728Z,101770.72
2023-05-05T19:21:45.140Z,101772.13
2023-05-05T19:24:11.665Z,101777.13
2023-05-05T19:26:38.088Z,101781.28
2023-05-05T19:29:04.863Z,101782.81
2023-05-05T19:31:31.683Z,101782.06
2023-05-05T19:34:03.908Z,101783.69
2023-05-05T19:36:31.666Z,101788.59
2023-05-05T19:39:03.935Z,101780.50
2023-05-05T19:41:31.034Z,101778.69
2023-05-05T19:43:57.754Z,101777.81
2023-05-05T19:46:27.427Z,101771.41
2023-05-05T19:48:54.091Z,101777.53
2023-05-05T19:51:20.570Z,101773.25
2023-05-05T19:53:47.275Z,101771.22
2023-05-05T19:56:13.961Z,101770.66
2023-05-05T19:58:57.801Z,101758.03
2023-05-05T20:01:25.151Z,101763.09
2023-05-05T20:03:54.406Z,101755.78
2023-05-05T20:06:21.475Z,101742.72
2023-05-05T20:08:48.067Z,101746.97
2023-05-05T20:11:15.748Z,101747.69
2023-05-05T20:13:43.069Z,101743.19
2023-05-05T20:16:10.097Z,101733.38
2023-05-05T20:18:36.688Z,101726.44
2023-05-05T20:21:03.438Z,101717.59
2023-05-05T20:23:30.340Z,101723.91
2023-05-05T20:25:56.732Z,101726.34
2023-05-05T20:28:23.949Z,101722.63
2023-05-05T20:30:50.484Z,101706.50
2023-05-05T20:33:16.976Z,101713.56
2023-05-05T20:35:43.374Z,101704.75
2023-05-05T20:38:10.143Z,101691.78
2023-05-05T20:40:36.963Z,101691.47
2023-05-05T20:43:03.698Z,101682.25
2023-05-05T20:45:31.690Z,101684.31
2023-05-05T20:48:00.465Z,101673.16
2023-05-05T20:50:26.965Z,101677.09
2023-05-05T20:52:53.442Z,101683.22
2023-05-05T20:55:20.060Z,101697.03
2023-05-05T20:57:47.039Z,101694.38
2023-05-05T21:00:14.022Z,101692.09
2023-05-05T21:02:40.733Z,101706.22
2023-05-05T21:05:07.460Z,101705.66
2023-05-05T21:07:34.476Z,101708.75
2023-05-05T21:10:02.433Z,101714.78
2023-05-05T21:12:29.792Z,101716.00
2023-05-05T21:14:58.466Z,101712.88
2023-05-05T21:17:29.176Z,101709.28
2023-05-05T21:19:56.118Z,101717.56
2023-05-05T21:22:23.001Z,101713.59
2023-05-05T21:24:49.416Z,101700.75
2023-05-05T21:27:16.166Z,101704.03
2023-05-05T21:29:42.606Z,101713.84
2023-05-05T21:32:10.996Z,101703.53
2023-05-05T21:34:38.853Z,101704.72
2023-05-05T21:37:06.468Z,101708.09
2023-05-05T21:39:33.460Z,101704.63
2023-05-05T21:42:00.569Z,101709.03
2023-05-05T21:44:28.068Z,101712.88
2023-05-05T21:46:55.619Z,101711.66
2023-05-05T21:49:22.211Z,101712.06
2023-05-05T21:51:48.950Z,101714.47
2023-05-05T21:54:15.773Z,101721.31
2023-05-05T21:56:42.430Z,101718.66
2023-05-05T21:59:08.952Z,101723.94
2023-05-05T22:01:35.762Z,101723.69
2023-05-05T22:04:02.425Z,101725.38
2023-05-05T22:06:29.294Z,101721.06
2023-05-05T22:08:56.829Z,101721.66
2023-05-05T22:11:23.644Z,101721.75
2023-05-05T22:13:50.132Z,101723.94
2023-05-05T22:16:19.763Z,101717.69
2023-05-05T22:18:46.724Z,101717.47
2023-05-05T22:21:13.212Z,101726.56
2023-05-05T22:23:41.696Z,101724.75
2023-05-05T22:26:08.902Z,101734.81
2023-05-05T22:28:35.726Z,101723.69
2023-05-05T22:31:02.270Z,101731.81
2023-05-05T22:33:28.888Z,101730.13
2023-05-05T22:35:55.662Z,101732.19
2023-05-05T22:38:22.266Z,101732.19
2023-05-05T22:40:49.790Z,101728.25
2023-05-05T22:43:16.267Z,101719.38
2023-05-05T22:45:43.721Z,101727.50
2023-05-05T22:48:10.288Z,101715.69
2023-05-05T22:50:37.458Z,101722.00
2023-05-05T22:53:04.089Z,101728.00
2023-05-05T22:55:30.886Z,101723.44
2023-05-05T22:57:57.337Z,101726.81
2023-05-05T23:00:24.146Z,101731.34
2023-05-05T23:02:50.942Z,101723.72
2023-05-05T23:05:17.383Z,101725.84
2023-05-05T23:07:44.165Z,101729.56
2023-05-05T23:10:10.956Z,101723.72
2023-05-05T23:12:37.684Z,101728.13
2023-05-05T23:15:04.982Z,101736.88
2023-05-05T23:17:31.552Z,101732.19
2023-05-05T23:19:58.006Z,101729.69
2023-05-05T23:22:24.588Z,101727.53
2023-05-05T23:24:51.023Z,101725.72
2023-05-05T23:27:17.740Z,101727.38
2023-05-05T23:29:44.172Z,101730.41
2023-05-05T23:32:10.723Z,101723.19
2023-05-05T23:34:37.180Z,101725.38
2023-05-05T23:37:06.085Z,101720.94
2023-05-05T23:39:35.774Z,101727.16
2023-05-05T23:42:02.343Z,101730.41
2023-05-05T23:44:28.864Z,101729.09
2023-05-05T23:46:55.445Z,101736.38
2023-05-05T23:49:22.100Z,101732.78
2023-05-05T23:51:48.536Z,101732.06
2023-05-05T23:54:14.948Z,101735.78
2023-05-05T23:56:42.682Z,101732.41
2023-05-05T23:59:09.215Z,101732.78
